createdAt,value
2023-07-11T00:00:20.006Z,18.50
2023-07-11T00:02:50.007Z,18.50
2023-07-11T00:05:19.801Z,18.40
2023-07-11T00:07:48.510Z,18.40
2023-07-11T00:10:20.124Z,18.40
2023-07-11T00:12:48.532Z,18.30
2023-07-11T00:15:19.076Z,18.30
2023-07-11T00:17:49.291Z,18.30
2023-07-11T00:20:18.733Z,18.30
2023-07-11T00:22:47.481Z,18.30
2023-07-11T00:25:16.099Z,18.30
2023-07-11T00:27:44.336Z,18.40
2023-07-11T00:30:14.116Z,18.40
2023-07-11T00:32:43.828Z,18.40
2023-07-11T00:35:12.109Z,18.30
2023-07-11T00:37:40.405Z,18.30
2023-07-11T00:40:10.030Z,18.40
2023-07-11T00:42:38.356Z,18.40
2023-07-11T00:45:07.356Z,18.40
2023-07-11T00:47:35.688Z,18.40
2023-07-11T00:50:09.070Z,18.40
2023-07-11T00:52:39.142Z,18.50
2023-07-11T00:55:10.651Z,18.50
2023-07-11T00:57:42.591Z,18.50
2023-07-11T01:00:12.479Z,18.50
2023-07-11T01:02:40.825Z,18.50
2023-07-11T01:05:10.946Z,18.50
2023-07-11T01:07:39.818Z,18.50
2023-07-11T01:10:09.064Z,18.50
2023-07-11T01:12:37.531Z,18.50
2023-07-11T01:15:06.924Z,18.50
2023-07-11T01:17:37.098Z,18.40
2023-07-11T01:20:08.967Z,18.50
2023-07-11T01:22:40.434Z,18.40
2023-07-11T01:25:11.871Z,18.40
2023-07-11T01:27:40.622Z,18.30
2023-07-11T01:30:11.472Z,18.20
2023-07-11T01:32:40.269Z,18.10
2023-07-11T01:35:09.080Z,18.10
2023-07-11T01:37:38.934Z,18.10
2023-07-11T01:40:08.866Z,18.10
2023-07-11T01:42:38.111Z,18.00
2023-07-11T01:45:08.190Z,17.90
2023-07-11T01:47:36.541Z,17.90
2023-07-11T01:50:05.055Z,17.90
2023-07-11T01:52:33.454Z,17.90
2023-07-11T01:55:04.221Z,17.90
2023-07-11T01:57:33.610Z,17.80
2023-07-11T02:00:02.020Z,17.80
2023-07-11T02:02:31.008Z,17.80
2023-07-11T02:04:59.383Z,17.80
2023-07-11T02:07:27.786Z,17.70
2023-07-11T02:09:57.615Z,17.70
2023-07-11T02:12:27.430Z,17.70
2023-07-11T02:14:55.838Z,17.60
2023-07-11T02:17:24.243Z,17.60
2023-07-11T02:19:52.720Z,17.60
2023-07-11T02:22:23.986Z,17.60
2023-07-11T02:24:52.339Z,17.70
2023-07-11T02:27:20.614Z,17.60
2023-07-11T02:29:50.503Z,17.60
2023-07-11T02:32:18.807Z,17.50
2023-07-11T02:34:47.155Z,17.40
2023-07-11T02:37:15.473Z,17.40
2023-07-11T02:39:46.094Z,17.40
2023-07-11T02:42:14.550Z,17.40
2023-07-11T02:44:42.855Z,17.40
2023-07-11T02:47:13.517Z,17.40
2023-07-11T02:49:42.306Z,17.40
2023-07-11T02:52:12.075Z,17.50
2023-07-11T02:54:40.924Z,17.50
2023-07-11T02:57:11.046Z,17.50
2023-07-11T02:59:39.758Z,17.50
2023-07-11T03:02:08.445Z,17.50
2023-07-11T03:04:40.197Z,17.50
2023-07-11T03:07:08.713Z,17.50
2023-07-11T03:09:38.244Z,17.50
2023-07-11T03:12:07.542Z,17.50
2023-07-11T03:14:35.805Z,17.40
2023-07-11T03:17:04.311Z,17.50
2023-07-11T03:19:32.943Z,17.50
2023-07-11T03:22:02.914Z,17.50
2023-07-11T03:24:31.249Z,17.50
2023-07-11T03:26:59.577Z,17.50
2023-07-11T03:29:27.880Z,17.60
2023-07-11T03:31:56.176Z,17.60
2023-07-11T03:34:25.393Z,17.60
2023-07-11T03:36:53.792Z,17.60
2023-07-11T03:39:24.835Z,17.60
2023-07-11T03:41:53.313Z,17.50
2023-07-11T03:44:21.677Z,17.50
2023-07-11T03:46:50.015Z,17.50
2023-07-11T03:49:18.362Z,17.60
2023-07-11T03:51:46.719Z,17.50
2023-07-11T03:54:14.978Z,17.50
2023-07-11T03:56:46.637Z,17.50
2023-07-11T03:59:15.139Z,17.50
2023-07-11T04:01:43.415Z,17.60
2023-07-11T04:04:15.187Z,17.60
2023-07-11T04:06:44.037Z,17.70
2023-07-11T04:09:13.356Z,17.70
2023-07-11T04:11:41.624Z,17.80
2023-07-11T04:14:12.616Z,17.80
2023-07-11T04:16:40.951Z,17.90
2023-07-11T04:19:09.287Z,18.00
2023-07-11T04:21:37.839Z,18.00
2023-07-11T04:24:06.670Z,18.00
2023-07-11T04:26:35.016Z,18.10
2023-07-11T04:29:03.353Z,18.20
2023-07-11T04:31:33.010Z,18.20
2023-07-11T04:34:02.401Z,18.30
2023-07-11T04:36:30.783Z,18.30
2023-07-11T04:38:59.125Z,18.40
2023-07-11T04:41:27.413Z,18.50
2023-07-11T04:43:55.813Z,18.50
2023-07-11T04:46:24.093Z,18.60
2023-07-11T04:48:53.964Z,18.60
2023-07-11T04:51:22.448Z,18.70
2023-07-11T04:53:51.853Z,18.70
2023-07-11T04:56:20.153Z,18.70
2023-07-11T04:58:48.491Z,18.70
2023-07-11T05:01:22.021Z,18.70
2023-07-11T05:03:51.811Z,18.80
2023-07-11T05:06:21.859Z,18.80
2023-07-11T05:08:50.141Z,19.00
2023-07-11T05:11:19.823Z,19.10
2023-07-11T05:13:50.318Z,19.20
2023-07-11T05:16:21.409Z,19.30
2023-07-11T05:18:50.905Z,19.40
2023-07-11T05:21:21.720Z,19.50
2023-07-11T05:23:50.204Z,19.70
2023-07-11T05:26:19.476Z,19.80
2023-07-11T05:28:48.019Z,19.80
2023-07-11T05:31:17.221Z,19.90
2023-07-11T05:33:45.625Z,20.00
2023-07-11T05:36:22.153Z,20.10
2023-07-11T05:38:54.557Z,20.30
2023-07-11T05:41:23.110Z,20.40
2023-07-11T05:43:51.379Z,20.50
2023-07-11T05:46:19.809Z,20.60
2023-07-11T05:48:48.143Z,20.80
2023-07-11T05:51:17.977Z,20.90
2023-07-11T05:53:47.734Z,21.00
2023-07-11T05:56:18.665Z,21.00
2023-07-11T05:58:48.168Z,21.20
2023-07-11T06:01:18.547Z,21.20
2023-07-11T06:03:49.783Z,21.40
2023-07-11T06:06:20.849Z,21.50
2023-07-11T06:08:49.435Z,21.60
2023-07-11T06:11:19.032Z,21.70
2023-07-11T06:13:47.448Z,21.80
2023-07-11T06:16:18.465Z,22.00
2023-07-11T06:18:50.312Z,22.10
2023-07-11T06:21:18.684Z,22.10
2023-07-11T06:23:48.180Z,22.20
2023-07-11T06:26:18.433Z,22.30
2023-07-11T06:28:46.835Z,22.30
2023-07-11T06:31:15.554Z,22.30
2023-07-11T06:33:44.889Z,22.40
2023-07-11T06:36:14.134Z,22.50
2023-07-11T06:38:42.500Z,22.60
2023-07-11T06:41:11.060Z,22.80
2023-07-11T06:43:41.003Z,22.90
2023-07-11T06:46:10.623Z,23.00
2023-07-11T06:48:39.140Z,23.30
2023-07-11T06:51:07.784Z,23.30
2023-07-11T06:53:36.830Z,23.20
2023-07-11T06:56:05.848Z,23.30
2023-07-11T06:58:34.481Z,23.40
2023-07-11T07:01:10.930Z,23.70
2023-07-11T07:03:45.007Z,23.80
2023-07-11T07:06:15.892Z,24.00
2023-07-11T07:08:45.842Z,24.10
2023-07-11T07:11:15.901Z,24.10
2023-07-11T07:13:52.142Z,24.20
2023-07-11T07:16:34.589Z,24.20
2023-07-11T07:19:03.381Z,24.40
2023-07-11T07:21:31.998Z,24.30
2023-07-11T07:24:00.772Z,24.30
2023-07-11T07:26:29.562Z,24.50
2023-07-11T07:28:58.310Z,24.40
2023-07-11T07:31:28.242Z,24.50
2023-07-11T07:33:58.914Z,24.50
2023-07-11T07:36:30.136Z,24.50
2023-07-11T07:38:58.740Z,24.40
2023-07-11T07:41:28.250Z,24.40
2023-07-11T07:43:57.509Z,24.40
2023-07-11T07:46:26.894Z,24.50
2023-07-11T07:48:57.064Z,24.60
2023-07-11T07:51:25.373Z,24.60
2023-07-11T07:53:53.639Z,24.60
2023-07-11T07:56:23.754Z,24.60
2023-07-11T07:58:52.855Z,24.60
2023-07-11T08:01:22.709Z,24.50
2023-07-11T08:03:51.917Z,24.50
2023-07-11T08:06:21.580Z,24.70
2023-07-11T08:08:50.757Z,24.80
2023-07-11T08:11:21.018Z,25.00
2023-07-11T08:18:52.336Z,25.50
2023-07-11T08:21:22.345Z,25.70
2023-07-11T08:23:50.714Z,25.90
2023-07-11T08:26:19.218Z,25.90
2023-07-11T08:28:47.591Z,25.90
2023-07-11T08:31:16.496Z,26.00
2023-07-11T08:33:45.628Z,26.20
2023-07-11T08:36:16.004Z,26.20
2023-07-11T08:38:47.966Z,26.30
2023-07-11T08:41:25.571Z,26.50
2023-07-11T08:43:58.961Z,26.70
2023-07-11T08:46:29.783Z,26.80
2023-07-11T08:49:02.715Z,26.90
2023-07-11T08:51:34.582Z,27.10
2023-07-11T08:54:07.997Z,27.20
2023-07-11T08:56:42.686Z,27.20
2023-07-11T08:59:16.608Z,27.20
2023-07-11T09:01:51.116Z,27.20
2023-07-11T09:04:23.553Z,27.20
2023-07-11T09:06:56.895Z,27.30
2023-07-11T09:09:27.958Z,27.40
2023-07-11T09:12:08.339Z,27.50
2023-07-11T09:14:50.093Z,27.60
2023-07-11T09:17:25.298Z,27.70
2023-07-11T09:20:13.850Z,27.70
2023-07-11T09:22:51.368Z,27.80
2023-07-11T09:25:28.316Z,27.90
2023-07-11T09:28:01.502Z,28.10
2023-07-11T09:30:44.266Z,28.20
2023-07-11T09:33:17.044Z,28.30
2023-07-11T09:35:46.875Z,28.40
2023-07-11T09:38:20.855Z,28.60
2023-07-11T09:40:53.629Z,28.90
2023-07-11T09:43:22.051Z,28.90
2023-07-11T09:45:50.717Z,28.90
2023-07-11T09:48:21.353Z,29.00
2023-07-11T09:53:34.457Z,28.90
2023-07-11T09:56:13.291Z,28.90
2023-07-11T09:58:42.801Z,28.80
2023-07-11T10:01:19.459Z,29.00
2023-07-11T10:03:49.375Z,29.00
2023-07-11T10:09:17.032Z,28.80
2023-07-11T10:11:54.505Z,28.90
2023-07-11T10:14:26.333Z,28.90
2023-07-11T10:16:57.408Z,28.90
2023-07-11T10:19:25.852Z,29.10
2023-07-11T10:21:58.964Z,29.30
2023-07-11T10:24:40.505Z,29.50
2023-07-11T10:27:14.516Z,29.60
2023-07-11T10:29:47.140Z,29.80
2023-07-11T10:32:22.631Z,29.60
2023-07-11T10:34:54.775Z,29.80
2023-07-11T10:37:30.240Z,29.90
2023-07-11T10:40:07.063Z,30.00
2023-07-11T10:42:43.261Z,30.20
2023-07-11T10:45:16.383Z,30.40
2023-07-11T10:47:56.608Z,30.50
2023-07-11T10:50:32.696Z,30.60
2023-07-11T10:53:06.980Z,30.80
2023-07-11T10:55:45.270Z,31.00
2023-07-11T10:58:25.017Z,31.10
2023-07-11T11:01:01.813Z,31.20
2023-07-11T11:03:39.328Z,31.30
2023-07-11T11:06:33.005Z,31.30
2023-07-11T11:09:12.959Z,31.10
2023-07-11T11:11:57.631Z,31.10
2023-07-11T11:14:37.056Z,31.20
2023-07-11T11:17:17.085Z,31.00
2023-07-11T11:20:01.547Z,30.90
2023-07-11T11:22:39.109Z,30.80
2023-07-11T11:25:17.640Z,30.70
2023-07-11T11:27:55.456Z,30.60
2023-07-11T11:30:35.902Z,30.60
2023-07-11T11:33:15.337Z,30.60
2023-07-11T11:35:54.312Z,30.50
2023-07-11T11:38:35.140Z,30.50
2023-07-11T11:41:10.596Z,30.50
2023-07-11T11:45:58.741Z,30.50
2023-07-11T11:46:33.951Z,30.50
2023-07-11T11:49:36.520Z,30.60
2023-07-11T11:51:56.939Z,30.70
2023-07-11T11:54:27.393Z,30.60
2023-07-11T11:56:59.655Z,30.70
2023-07-11T11:59:30.306Z,30.70
2023-07-11T12:02:05.378Z,30.60
2023-07-11T12:05:00.941Z,30.60
2023-07-11T12:07:35.729Z,30.70
2023-07-11T12:10:22.003Z,30.90
2023-07-11T12:13:13.125Z,30.90
2023-07-11T12:15:42.101Z,31.00
2023-07-11T12:18:41.948Z,31.10
2023-07-11T12:21:27.781Z,31.10
2023-07-11T12:26:53.007Z,31.30
2023-07-11T12:29:39.709Z,31.20
2023-07-11T12:32:42.121Z,31.50
2023-07-11T12:35:21.193Z,31.30
2023-07-11T12:38:01.136Z,31.20
2023-07-11T12:40:34.814Z,31.20
2023-07-11T12:43:04.840Z,31.40
2023-07-11T12:45:38.755Z,31.60
2023-07-11T12:48:11.587Z,31.70
2023-07-11T12:50:46.546Z,31.80
2023-07-11T12:53:15.860Z,31.80
2023-07-11T12:55:44.797Z,31.90
2023-07-11T12:58:22.116Z,32.10
2023-07-11T13:00:51.553Z,32.30
2023-07-11T13:03:25.107Z,32.30
2023-07-11T13:06:11.662Z,32.40
2023-07-11T13:08:46.797Z,32.40
2023-07-11T13:11:23.017Z,32.60
2023-07-11T13:13:52.655Z,32.60
2023-07-11T13:16:24.549Z,32.60
2023-07-11T13:18:54.445Z,32.50
2023-07-11T13:21:26.056Z,32.50
2023-07-11T13:23:54.399Z,32.60
2023-07-11T13:26:25.288Z,32.60
2023-07-11T13:29:09.485Z,32.80
2023-07-11T13:31:39.276Z,32.80
2023-07-11T13:34:14.032Z,32.70
2023-07-11T13:36:46.268Z,32.70
2023-07-11T13:39:16.959Z,32.80
2023-07-11T13:41:49.265Z,32.80
2023-07-11T13:44:25.535Z,32.70
2023-07-11T13:46:54.444Z,32.70
2023-07-11T13:49:25.543Z,32.80
2023-07-11T13:51:59.733Z,32.80
2023-07-11T13:54:33.204Z,32.80
2023-07-11T13:57:02.288Z,32.80
2023-07-11T14:02:02.213Z,32.90
2023-07-11T14:04:34.423Z,32.90
2023-07-11T14:07:05.668Z,33.00
2023-07-11T14:09:34.018Z,32.90
2023-07-11T14:12:02.320Z,33.10
2023-07-11T14:14:39.919Z,33.20
2023-07-11T14:17:16.818Z,33.10
2023-07-11T14:19:45.550Z,33.40
2023-07-11T14:22:22.490Z,33.60
2023-07-11T14:24:50.960Z,33.50
2023-07-11T14:27:20.089Z,33.60
2023-07-11T14:29:48.497Z,33.70
2023-07-11T14:32:18.701Z,33.60
2023-07-11T14:34:47.192Z,33.60
2023-07-11T14:37:19.037Z,33.40
2023-07-11T14:39:48.442Z,33.40
2023-07-11T14:42:33.253Z,33.40
2023-07-11T14:45:01.610Z,33.50
2023-07-11T14:47:30.188Z,33.60
2023-07-11T14:50:00.226Z,33.60
2023-07-11T14:52:32.442Z,33.80
2023-07-11T15:00:06.399Z,34.30
2023-07-11T15:02:37.439Z,34.20
2023-07-11T15:10:12.470Z,34.30
2023-07-11T15:17:49.234Z,34.00
2023-07-11T15:20:19.914Z,33.90
2023-07-11T15:22:51.587Z,33.80
2023-07-11T15:25:29.043Z,33.70
2023-07-11T15:27:57.919Z,33.60
2023-07-11T15:30:26.860Z,33.80
2023-07-11T15:32:56.132Z,33.90
2023-07-11T15:35:26.801Z,34.20
2023-07-11T15:37:56.824Z,34.40
2023-07-11T15:40:27.164Z,34.40
2023-07-11T15:42:56.422Z,34.30
2023-07-11T15:45:27.473Z,34.50
2023-07-11T15:47:56.475Z,34.60
2023-07-11T15:50:27.709Z,34.90
2023-07-11T15:52:57.755Z,34.90
2023-07-11T15:55:29.271Z,35.00
2023-07-11T15:57:58.111Z,34.70
2023-07-11T16:00:28.772Z,34.60
2023-07-11T16:02:57.672Z,34.60
2023-07-11T16:05:29.622Z,34.70
2023-07-11T16:07:59.477Z,34.70
2023-07-11T16:10:31.140Z,34.60
2023-07-11T16:13:00.199Z,34.60
2023-07-11T16:15:32.059Z,34.40
2023-07-11T16:18:01.090Z,34.20
2023-07-11T16:20:33.508Z,34.00
2023-07-11T16:23:03.263Z,34.00
2023-07-11T16:25:32.813Z,33.90
2023-07-11T16:28:01.490Z,33.80
2023-07-11T16:30:32.951Z,33.50
2023-07-11T16:33:04.134Z,33.60
2023-07-11T16:35:36.533Z,33.50
2023-07-11T16:38:12.116Z,33.50
2023-07-11T16:40:40.536Z,33.50
2023-07-11T16:43:11.291Z,33.40
2023-07-11T16:45:40.154Z,33.20
2023-07-11T16:48:12.919Z,33.10
2023-07-11T16:50:42.274Z,33.10
2023-07-11T16:53:23.129Z,33.00
2023-07-11T16:55:53.065Z,33.20
2023-07-11T16:58:23.855Z,33.30
2023-07-11T17:00:54.443Z,33.40
2023-07-11T17:03:24.087Z,33.60
2023-07-11T17:05:53.373Z,33.50
2023-07-11T17:08:27.285Z,33.60
2023-07-11T17:10:55.566Z,33.80
2023-07-11T17:13:25.870Z,33.90
2023-07-11T17:15:56.961Z,33.90
2023-07-11T17:18:26.283Z,34.10
2023-07-11T17:20:57.278Z,34.30
2023-07-11T17:23:27.888Z,34.30
2023-07-11T17:26:00.433Z,34.30
2023-07-11T17:28:30.534Z,34.20
2023-07-11T17:30:59.309Z,34.10
2023-07-11T17:33:29.619Z,33.80
2023-07-11T17:36:01.440Z,33.50
2023-07-11T17:38:33.870Z,33.40
2023-07-11T17:41:02.702Z,33.10
2023-07-11T17:43:31.989Z,32.90
2023-07-11T17:46:25.301Z,32.70
2023-07-11T17:48:48.954Z,32.50
2023-07-11T17:51:18.010Z,32.40
2023-07-11T17:53:48.537Z,32.10
2023-07-11T17:56:17.901Z,31.90
2023-07-11T17:58:47.357Z,31.80
2023-07-11T18:01:18.915Z,31.80
2023-07-11T18:03:47.451Z,32.00
2023-07-11T18:06:17.298Z,32.20
2023-07-11T18:08:47.075Z,32.50
2023-07-11T18:11:16.646Z,32.70
2023-07-11T18:13:46.022Z,33.00
2023-07-11T18:16:18.309Z,33.30
2023-07-11T18:18:46.740Z,33.50
2023-07-11T18:21:15.165Z,33.50
2023-07-11T18:23:43.600Z,33.20
2023-07-11T18:26:16.791Z,33.00
2023-07-11T18:28:45.537Z,32.70
2023-07-11T18:31:19.240Z,32.30
2023-07-11T18:33:47.911Z,32.00
2023-07-11T18:36:21.503Z,31.70
2023-07-11T18:38:50.073Z,31.40
2023-07-11T18:41:19.708Z,31.20
2023-07-11T18:43:48.056Z,31.00
2023-07-11T18:46:19.091Z,30.80
2023-07-11T18:48:47.594Z,30.50
2023-07-11T18:51:18.480Z,30.40
2023-07-11T18:53:46.818Z,30.20
2023-07-11T18:56:17.479Z,30.10
2023-07-11T18:58:47.229Z,30.00
2023-07-11T19:01:15.600Z,29.90
2023-07-11T19:03:44.163Z,29.80
2023-07-11T19:06:15.869Z,29.70
2023-07-11T19:08:47.626Z,29.60
2023-07-11T19:11:18.683Z,29.60
2023-07-11T19:13:49.514Z,29.40
2023-07-11T19:16:20.617Z,29.40
2023-07-11T19:18:49.351Z,29.30
2023-07-11T19:21:17.628Z,29.20
2023-07-11T19:23:46.893Z,29.00
2023-07-11T19:26:18.121Z,28.60
2023-07-11T19:28:48.952Z,28.10
2023-07-11T19:31:18.036Z,27.70
2023-07-11T19:33:46.395Z,27.50
2023-07-11T19:36:18.579Z,27.30
2023-07-11T19:38:47.193Z,27.00
2023-07-11T19:41:17.721Z,26.80
2023-07-11T19:43:50.014Z,26.60
2023-07-11T19:46:22.186Z,26.40
2023-07-11T19:48:51.714Z,26.30
2023-07-11T19:51:19.934Z,26.10
2023-07-11T19:53:48.214Z,26.00
2023-07-11T19:56:23.540Z,25.90
2023-07-11T19:58:53.672Z,25.90
2023-07-11T20:01:22.254Z,25.90
2023-07-11T20:03:52.468Z,25.70
2023-07-11T20:06:23.676Z,25.60
2023-07-11T20:08:52.714Z,25.30
2023-07-11T20:11:21.058Z,25.00
2023-07-11T20:13:49.465Z,24.60
2023-07-11T20:16:21.156Z,24.40
2023-07-11T20:18:50.005Z,24.00
2023-07-11T20:21:21.990Z,23.80
2023-07-11T20:23:52.263Z,23.70
2023-07-11T20:26:24.168Z,23.50
2023-07-11T20:28:53.947Z,23.40
2023-07-11T20:31:24.601Z,23.20
2023-07-11T20:33:52.968Z,23.00
2023-07-11T20:36:23.389Z,22.90
2023-07-11T20:38:52.742Z,22.70
2023-07-11T20:41:21.293Z,22.70
2023-07-11T20:43:51.328Z,22.70
2023-07-11T20:46:22.302Z,22.70
2023-07-11T20:48:52.482Z,22.60
2023-07-11T20:51:22.151Z,22.50
2023-07-11T20:53:51.526Z,22.40
2023-07-11T20:56:22.750Z,22.30
2023-07-11T20:58:55.777Z,22.20
2023-07-11T21:01:27.534Z,22.20
2023-07-11T21:03:57.464Z,22.20
2023-07-11T21:06:31.068Z,22.10
2023-07-11T21:08:59.811Z,22.20
2023-07-11T21:11:28.451Z,22.20
2023-07-11T21:13:57.015Z,22.20
2023-07-11T21:16:27.576Z,22.20
2023-07-11T21:18:58.281Z,22.20
2023-07-11T21:21:27.820Z,22.20
2023-07-11T21:23:56.194Z,22.20
2023-07-11T21:26:26.238Z,22.30
2023-07-11T21:28:56.437Z,22.30
2023-07-11T21:31:27.565Z,22.30
2023-07-11T21:33:58.000Z,22.40
2023-07-11T21:36:27.789Z,22.50
2023-07-11T21:38:56.476Z,22.50
2023-07-11T21:41:24.858Z,22.50
2023-07-11T21:43:53.222Z,22.60
2023-07-11T21:46:24.334Z,22.60
2023-07-11T21:48:52.640Z,22.50
2023-07-11T21:51:22.390Z,22.50
2023-07-11T21:53:50.936Z,22.40
2023-07-11T21:56:23.698Z,22.40
2023-07-11T21:58:52.781Z,22.40
2023-07-11T22:01:23.542Z,22.40
2023-07-11T22:03:52.523Z,22.40
2023-07-11T22:06:26.741Z,22.40
2023-07-11T22:08:56.617Z,22.40
2023-07-11T22:11:25.614Z,22.40
2023-07-11T22:13:54.060Z,22.40
2023-07-11T22:16:24.462Z,22.40
2023-07-11T22:18:53.333Z,22.40
2023-07-11T22:21:25.073Z,22.30
2023-07-11T22:23:53.633Z,22.30
2023-07-11T22:26:24.440Z,22.30
2023-07-11T22:28:53.473Z,22.40
2023-07-11T22:31:25.151Z,22.40
2023-07-11T22:33:53.653Z,22.40
2023-07-11T22:36:23.305Z,22.40
2023-07-11T22:38:51.703Z,22.50
2023-07-11T22:41:19.945Z,22.50
2023-07-11T22:43:48.332Z,22.60
2023-07-11T22:46:19.397Z,22.60
2023-07-11T22:48:48.738Z,22.60
2023-07-11T22:51:18.437Z,22.60
2023-07-11T22:53:49.601Z,22.60
2023-07-11T22:56:20.329Z,22.60
2023-07-11T22:58:49.618Z,22.60
2023-07-11T23:01:19.334Z,22.50
2023-07-11T23:03:48.493Z,22.40
2023-07-11T23:06:20.632Z,22.50
2023-07-11T23:08:51.071Z,22.40
2023-07-11T23:11:20.533Z,22.40
2023-07-11T23:13:50.279Z,22.40
2023-07-11T23:16:28.036Z,22.40
2023-07-11T23:18:57.343Z,22.30
2023-07-11T23:21:25.840Z,22.30
2023-07-11T23:23:56.754Z,22.30
2023-07-11T23:26:25.559Z,22.30
2023-07-11T23:28:55.037Z,22.20
2023-07-11T23:31:23.428Z,22.20
2023-07-11T23:33:51.733Z,22.20
2023-07-11T23:36:22.595Z,22.20
2023-07-11T23:38:53.127Z,22.20
2023-07-11T23:41:23.456Z,22.20
2023-07-11T23:43:52.940Z,22.20
2023-07-11T23:46:24.211Z,22.10
2023-07-11T23:48:53.364Z,22.00
2023-07-11T23:51:23.141Z,22.00
2023-07-11T23:53:52.151Z,22.00
2023-07-11T23:56:23.912Z,22.00
2023-07-11T23:58:53.539Z,22.00
